createdAt,value
2022-11-10T00:02:44.214Z,71.20
2022-11-10T00:05:31.900Z,71.20
2022-11-10T00:08:20.266Z,71.30
2022-11-10T00:11:08.762Z,71.20
2022-11-10T00:14:13.512Z,71.20
2022-11-10T00:17:04.780Z,71.30
2022-11-10T00:19:52.715Z,71.40
2022-11-10T00:22:41.275Z,71.40
2022-11-10T00:25:33.703Z,71.40
2022-11-10T00:28:20.728Z,71.50
2022-11-10T00:31:09.083Z,71.50
2022-11-10T00:33:56.042Z,71.80
2022-11-10T00:36:43.496Z,72.00
2022-11-10T00:39:30.233Z,72.20
2022-11-10T00:42:18.644Z,72.20
2022-11-10T00:45:07.493Z,72.40
2022-11-10T00:47:54.254Z,72.20
2022-11-10T00:50:41.175Z,72.40
2022-11-10T00:53:28.405Z,72.20
2022-11-10T00:56:15.293Z,72.40
2022-11-10T00:59:03.840Z,72.30
2022-11-10T01:01:51.054Z,72.30
2022-11-10T01:04:38.168Z,73.00
2022-11-10T01:07:25.115Z,72.30
2022-11-10T01:10:12.079Z,72.40
2022-11-10T01:12:59.168Z,72.40
2022-11-10T01:15:47.518Z,72.50
2022-11-10T01:18:35.146Z,72.40
2022-11-10T01:21:23.358Z,72.40
2022-11-10T01:24:10.424Z,72.40
2022-11-10T01:26:57.597Z,72.40
2022-11-10T01:29:44.740Z,72.50
2022-11-10T01:32:33.713Z,72.40
2022-11-10T01:35:21.865Z,72.50
2022-11-10T01:38:08.932Z,72.40
2022-11-10T01:40:56.243Z,72.50
2022-11-10T01:43:43.493Z,72.40
2022-11-10T01:46:30.666Z,72.40
2022-11-10T01:49:22.314Z,72.30
2022-11-10T01:52:12.517Z,72.40
2022-11-10T01:54:59.860Z,72.30
2022-11-10T01:57:50.723Z,72.40
2022-11-10T02:00:37.891Z,73.00
2022-11-10T02:03:31.775Z,72.20
2022-11-10T02:06:25.210Z,72.30
2022-11-10T02:09:13.066Z,71.80
2022-11-10T02:11:59.937Z,72.40
2022-11-10T02:14:46.962Z,72.50
2022-11-10T02:17:34.492Z,72.40
2022-11-10T02:20:23.104Z,72.30
2022-11-10T02:23:36.619Z,72.20
2022-11-10T02:26:30.265Z,72.40
2022-11-10T02:29:17.443Z,72.30
2022-11-10T02:32:04.315Z,72.30
2022-11-10T02:34:51.481Z,72.40
2022-11-10T02:37:38.670Z,72.40
2022-11-10T02:40:25.845Z,72.40
2022-11-10T02:43:18.277Z,72.50
2022-11-10T02:46:05.764Z,72.40
2022-11-10T02:48:53.025Z,72.40
2022-11-10T02:51:39.826Z,72.20
2022-11-10T02:54:26.611Z,72.30
2022-11-10T02:57:13.683Z,72.40
2022-11-10T03:00:02.431Z,72.40
2022-11-10T03:02:49.771Z,72.30
2022-11-10T03:05:37.020Z,72.30
2022-11-10T03:08:24.062Z,72.30
2022-11-10T03:11:11.244Z,72.50
2022-11-10T03:14:01.967Z,72.40
2022-11-10T03:16:51.121Z,72.20
2022-11-10T03:19:38.413Z,72.30
2022-11-10T03:22:25.299Z,72.10
2022-11-10T03:25:13.218Z,72.30
2022-11-10T03:28:00.196Z,72.10
2022-11-10T03:30:47.692Z,72.20
2022-11-10T03:33:36.627Z,72.20
2022-11-10T03:36:23.852Z,72.30
2022-11-10T03:39:10.543Z,72.20
2022-11-10T03:41:57.485Z,72.20
2022-11-10T03:44:44.707Z,72.10
2022-11-10T03:47:31.738Z,72.00
2022-11-10T03:50:20.202Z,72.80
2022-11-10T03:53:07.699Z,72.00
2022-11-10T03:55:54.896Z,71.90
2022-11-10T03:58:42.805Z,72.20
2022-11-10T04:01:29.861Z,72.10
2022-11-10T04:04:31.115Z,72.10
2022-11-10T04:07:37.255Z,72.10
2022-11-10T04:10:24.685Z,72.80
2022-11-10T04:13:29.642Z,72.30
2022-11-10T04:16:16.857Z,72.00
2022-11-10T04:19:04.082Z,72.10
2022-11-10T04:21:51.248Z,72.00
2022-11-10T04:24:39.741Z,72.10
2022-11-10T04:27:26.862Z,72.00
2022-11-10T04:30:14.230Z,72.00
2022-11-10T04:33:01.264Z,72.00
2022-11-10T04:35:48.561Z,71.90
2022-11-10T04:38:35.896Z,72.00
2022-11-10T04:41:24.958Z,72.70
2022-11-10T04:44:11.735Z,72.20
2022-11-10T04:46:59.017Z,75.80
2022-11-10T04:49:45.606Z,75.80
2022-11-10T04:52:32.727Z,74.80
2022-11-10T04:55:19.984Z,74.80
2022-11-10T04:58:08.442Z,74.80
2022-11-10T05:00:55.588Z,75.20
2022-11-10T05:03:43.185Z,77.20
2022-11-10T05:06:30.068Z,76.00
2022-11-10T05:09:16.787Z,75.30
2022-11-10T05:12:05.466Z,74.70
2022-11-10T05:14:53.727Z,73.90
2022-11-10T05:17:40.836Z,73.50
2022-11-10T05:20:28.341Z,73.20
2022-11-10T05:23:33.173Z,73.20
2022-11-10T05:26:20.670Z,73.00
2022-11-10T05:29:07.577Z,73.00
2022-11-10T05:31:56.095Z,72.80
2022-11-10T05:34:43.028Z,72.60
2022-11-10T05:37:29.860Z,72.60
2022-11-10T05:40:17.749Z,72.70
2022-11-10T05:43:05.001Z,72.40
2022-11-10T05:45:52.071Z,72.40
2022-11-10T05:48:40.649Z,72.40
2022-11-10T05:51:27.448Z,72.40
2022-11-10T05:54:14.203Z,72.30
2022-11-10T05:57:01.139Z,72.50
2022-11-10T05:59:48.374Z,72.40
2022-11-10T06:02:35.813Z,72.40
2022-11-10T06:05:29.706Z,72.40
2022-11-10T06:08:19.077Z,72.50
2022-11-10T06:11:06.635Z,72.70
2022-11-10T06:13:53.772Z,72.30
2022-11-10T06:16:41.092Z,72.50
2022-11-10T06:19:28.253Z,72.40
2022-11-10T06:22:16.504Z,72.30
2022-11-10T06:25:04.396Z,72.20
2022-11-10T06:27:51.881Z,72.30
2022-11-10T06:30:40.288Z,72.90
2022-11-10T06:33:27.064Z,72.10
2022-11-10T06:36:14.291Z,72.00
2022-11-10T06:39:03.443Z,72.40
2022-11-10T06:41:51.290Z,72.30
2022-11-10T06:44:38.574Z,72.10
2022-11-10T06:47:26.835Z,72.10
2022-11-10T06:50:14.325Z,71.80
2022-11-10T06:53:03.462Z,71.60
2022-11-10T06:55:52.245Z,70.70
2022-11-10T06:58:39.505Z,70.40
2022-11-10T07:01:26.743Z,69.10
2022-11-10T07:04:20.526Z,67.70
2022-11-10T07:07:08.358Z,66.00
2022-11-10T07:09:56.037Z,65.50
2022-11-10T07:12:44.415Z,66.20
2022-11-10T07:15:31.785Z,66.70
2022-11-10T07:18:18.989Z,66.30
2022-11-10T07:21:07.069Z,65.40
2022-11-10T07:23:53.909Z,65.20
2022-11-10T07:26:41.376Z,65.60
2022-11-10T07:29:29.505Z,65.90
2022-11-10T07:32:16.139Z,66.10
2022-11-10T07:35:03.472Z,66.30
2022-11-10T07:37:50.495Z,66.30
2022-11-10T07:40:37.925Z,66.30
2022-11-10T07:43:26.516Z,66.40
2022-11-10T07:46:14.537Z,66.70
2022-11-10T07:49:01.272Z,66.90
2022-11-10T07:51:48.294Z,67.10
2022-11-10T07:54:35.352Z,67.00
2022-11-10T07:57:22.498Z,67.10
2022-11-10T08:00:12.572Z,67.10
2022-11-10T08:03:06.391Z,67.50
2022-11-10T08:05:53.305Z,68.10
2022-11-10T08:08:40.354Z,68.20
2022-11-10T08:11:27.781Z,68.00
2022-11-10T08:14:14.772Z,68.10
2022-11-10T08:17:01.868Z,68.20
2022-11-10T08:19:50.372Z,68.10
2022-11-10T08:22:37.397Z,68.00
2022-11-10T08:25:24.599Z,68.00
2022-11-10T08:28:14.411Z,68.10
2022-11-10T08:31:06.153Z,68.10
2022-11-10T08:33:53.475Z,68.10
2022-11-10T08:36:42.266Z,68.20
2022-11-10T08:39:38.717Z,68.30
2022-11-10T08:42:26.511Z,69.00
2022-11-10T08:45:13.765Z,68.40
2022-11-10T08:48:01.451Z,68.40
2022-11-10T08:50:49.766Z,68.40
2022-11-10T08:53:38.462Z,68.50
2022-11-10T08:56:25.338Z,68.20
2022-11-10T08:59:12.503Z,68.70
2022-11-10T09:01:59.985Z,68.60
2022-11-10T09:04:47.108Z,68.80
2022-11-10T09:07:35.930Z,68.80
2022-11-10T09:10:24.418Z,68.80
2022-11-10T09:13:13.010Z,68.80
2022-11-10T09:16:03.197Z,68.50
2022-11-10T09:18:50.032Z,68.70
2022-11-10T09:21:37.307Z,68.80
2022-11-10T09:24:30.060Z,68.80
2022-11-10T09:27:20.226Z,68.80
2022-11-10T09:30:13.100Z,68.70
2022-11-10T09:33:04.859Z,68.60
2022-11-10T09:35:52.458Z,68.70
2022-11-10T09:38:39.319Z,68.90
2022-11-10T09:41:29.797Z,68.90
2022-11-10T09:44:25.579Z,68.90
2022-11-10T09:47:42.432Z,68.80
2022-11-10T09:50:35.053Z,68.70
2022-11-10T09:53:26.195Z,68.70
2022-11-10T09:56:20.363Z,68.70
2022-11-10T09:59:25.935Z,68.80
2022-11-10T10:02:24.827Z,68.90
2022-11-10T10:05:51.545Z,68.90
2022-11-10T10:08:59.468Z,68.90
2022-11-10T10:12:00.441Z,69.00
2022-11-10T10:15:12.988Z,69.10
2022-11-10T10:18:20.305Z,69.10
2022-11-10T10:21:24.961Z,69.10
2022-11-10T10:24:21.560Z,69.10
2022-11-10T10:27:22.245Z,69.10
2022-11-10T10:30:17.454Z,69.00
2022-11-10T10:33:17.082Z,69.10
2022-11-10T10:36:10.727Z,69.20
2022-11-10T10:39:02.067Z,69.20
2022-11-10T10:41:49.255Z,69.20
2022-11-10T10:44:35.984Z,69.60
2022-11-10T10:47:38.123Z,69.40
2022-11-10T10:50:30.285Z,69.50
2022-11-10T10:53:20.234Z,69.50
2022-11-10T10:56:15.587Z,69.50
2022-11-10T10:59:05.945Z,69.50
2022-11-10T11:01:55.572Z,69.70
2022-11-10T11:04:44.167Z,69.70
2022-11-10T11:07:31.331Z,69.50
2022-11-10T11:10:24.342Z,69.50
2022-11-10T11:13:17.196Z,69.50
2022-11-10T11:16:07.224Z,69.40
2022-11-10T11:18:54.289Z,69.40
2022-11-10T11:22:06.105Z,69.80
2022-11-10T11:25:02.639Z,69.80
2022-11-10T11:28:04.221Z,69.80
2022-11-10T11:31:06.182Z,69.80
2022-11-10T11:34:02.193Z,70.00
2022-11-10T11:37:05.364Z,70.10
2022-11-10T11:40:06.440Z,70.70
2022-11-10T11:43:08.830Z,70.10
2022-11-10T11:46:04.471Z,70.20
2022-11-10T11:48:57.521Z,70.10
2022-11-10T11:51:54.328Z,70.10
2022-11-10T11:55:01.984Z,70.20
2022-11-10T11:58:17.152Z,70.10
2022-11-10T12:01:35.769Z,70.50
2022-11-10T12:04:53.658Z,70.50
2022-11-10T12:07:55.378Z,70.30
2022-11-10T12:10:53.651Z,70.30
2022-11-10T12:13:57.173Z,70.20
2022-11-10T12:16:54.185Z,70.10
2022-11-10T12:19:50.153Z,70.30
2022-11-10T12:22:48.102Z,70.30
2022-11-10T12:25:47.391Z,70.40
2022-11-10T12:28:40.698Z,70.40
2022-11-10T12:31:32.819Z,71.10
2022-11-10T12:34:29.930Z,70.50
2022-11-10T12:37:27.982Z,70.40
2022-11-10T12:40:18.715Z,70.30
2022-11-10T12:43:18.978Z,70.50
2022-11-10T12:46:09.699Z,71.20
2022-11-10T12:49:13.045Z,70.40
2022-11-10T12:52:11.109Z,70.40
2022-11-10T12:54:58.239Z,70.40
2022-11-10T12:57:46.074Z,70.40
2022-11-10T13:00:41.313Z,70.50
2022-11-10T13:03:32.369Z,70.30
2022-11-10T13:06:29.603Z,70.40
2022-11-10T13:09:28.997Z,70.40
2022-11-10T13:12:22.702Z,70.30
2022-11-10T13:15:49.436Z,70.20
2022-11-10T13:19:01.593Z,70.00
2022-11-10T13:22:12.987Z,70.10
2022-11-10T13:25:53.358Z,70.00
2022-11-10T13:29:29.260Z,70.20
2022-11-10T13:32:32.384Z,70.40
2022-11-10T13:35:55.177Z,70.30
2022-11-10T13:38:44.248Z,70.10
2022-11-10T13:41:34.366Z,70.20
2022-11-10T13:44:26.117Z,70.20
2022-11-10T13:47:53.737Z,70.30
2022-11-10T13:50:55.363Z,70.10
2022-11-10T13:53:56.008Z,70.10
2022-11-10T13:57:04.779Z,70.20
2022-11-10T13:59:56.503Z,70.20
2022-11-10T14:02:54.962Z,70.30
2022-11-10T14:06:13.575Z,70.10
2022-11-10T14:09:07.676Z,70.00
2022-11-10T14:11:59.885Z,70.00
2022-11-10T14:14:55.605Z,69.80
2022-11-10T14:17:48.500Z,70.00
2022-11-10T14:20:44.725Z,70.00
2022-11-10T14:23:39.016Z,69.80
2022-11-10T14:26:33.798Z,69.80
2022-11-10T14:29:38.867Z,69.80
2022-11-10T14:32:26.887Z,69.90
2022-11-10T14:35:26.131Z,70.00
2022-11-10T14:38:21.963Z,69.90
2022-11-10T14:41:19.076Z,69.80
2022-11-10T14:44:12.100Z,70.00
2022-11-10T14:47:16.151Z,70.00
2022-11-10T14:50:18.828Z,69.80
2022-11-10T14:53:13.980Z,70.60
2022-11-10T14:56:05.475Z,70.10
2022-11-10T14:58:53.620Z,71.40
2022-11-10T15:01:49.548Z,80.00
2022-11-10T15:04:38.489Z,79.90
2022-11-10T15:07:26.423Z,78.70
2022-11-10T15:10:20.256Z,77.80
2022-11-10T15:13:21.026Z,75.60
2022-11-10T15:16:26.507Z,91.00
2022-11-10T15:19:27.719Z,81.10
2022-11-10T15:22:21.036Z,79.20
2022-11-10T15:25:17.828Z,78.10
2022-11-10T15:28:24.305Z,77.70
2022-11-10T15:31:15.236Z,78.30
2022-11-10T15:34:12.382Z,77.00
2022-11-10T15:37:29.080Z,76.70
2022-11-10T15:40:37.645Z,76.60
2022-11-10T15:43:29.500Z,76.40
2022-11-10T15:46:19.481Z,76.30
2022-11-10T15:49:14.413Z,76.10
2022-11-10T15:52:04.014Z,76.50
2022-11-10T15:54:51.755Z,76.70
2022-11-10T15:57:38.754Z,77.50
2022-11-10T16:00:27.917Z,77.20
2022-11-10T16:03:18.262Z,78.80
2022-11-10T16:06:05.377Z,77.40
2022-11-10T16:08:52.342Z,75.10
2022-11-10T16:11:41.910Z,78.40
2022-11-10T16:14:29.739Z,80.60
2022-11-10T16:17:19.060Z,78.00
2022-11-10T16:20:15.008Z,77.40
2022-11-10T16:23:02.175Z,76.70
2022-11-10T16:25:52.574Z,76.70
2022-11-10T16:28:39.909Z,75.80
2022-11-10T16:31:29.261Z,75.60
2022-11-10T16:34:17.634Z,75.10
2022-11-10T16:37:04.623Z,75.00
2022-11-10T16:39:51.849Z,74.90
2022-11-10T16:42:38.987Z,74.70
2022-11-10T16:45:30.228Z,74.60
2022-11-10T16:48:19.952Z,74.10
2022-11-10T16:51:08.495Z,73.90
2022-11-10T16:53:55.588Z,73.80
2022-11-10T16:56:42.652Z,73.70
2022-11-10T16:59:30.789Z,73.40
2022-11-10T17:02:29.936Z,73.20
2022-11-10T17:05:17.225Z,73.20
2022-11-10T17:08:06.280Z,72.80
2022-11-10T17:10:56.723Z,73.30
2022-11-10T17:13:44.595Z,73.20
2022-11-10T17:16:37.131Z,72.80
2022-11-10T17:19:27.547Z,72.50
2022-11-10T17:22:18.917Z,72.80
2022-11-10T17:25:14.474Z,72.70
2022-11-10T17:28:01.938Z,72.50
2022-11-10T17:30:48.894Z,72.50
2022-11-10T17:33:36.046Z,72.60
2022-11-10T17:36:27.654Z,72.20
2022-11-10T17:39:16.201Z,71.90
2022-11-10T17:42:04.935Z,71.40
2022-11-10T17:44:52.056Z,70.50
2022-11-10T17:47:39.724Z,71.20
2022-11-10T17:50:27.833Z,71.10
2022-11-10T17:53:21.287Z,70.70
2022-11-10T17:56:09.289Z,70.30
2022-11-10T17:58:58.274Z,69.80
2022-11-10T18:01:45.137Z,69.80
2022-11-10T18:04:32.478Z,70.10
2022-11-10T18:07:19.258Z,71.20
2022-11-10T18:10:08.393Z,72.60
2022-11-10T18:12:55.334Z,72.40
2022-11-10T18:15:45.095Z,73.70
2022-11-10T18:18:32.301Z,73.50
2022-11-10T18:21:19.351Z,73.70
2022-11-10T18:24:06.502Z,73.50
2022-11-10T18:26:53.684Z,72.80
2022-11-10T18:29:41.620Z,72.50
2022-11-10T18:32:30.506Z,72.40
2022-11-10T18:35:18.079Z,72.40
2022-11-10T18:38:05.619Z,71.80
2022-11-10T18:40:53.434Z,71.80
2022-11-10T18:43:40.448Z,71.70
2022-11-10T18:46:27.895Z,71.70
2022-11-10T18:49:16.624Z,71.50
2022-11-10T18:52:03.996Z,71.00
2022-11-10T18:54:50.837Z,70.80
2022-11-10T18:57:37.619Z,71.00
2022-11-10T19:00:25.415Z,71.20
2022-11-10T19:03:12.564Z,71.20
2022-11-10T19:06:00.901Z,71.30
2022-11-10T19:08:48.671Z,71.40
2022-11-10T19:11:36.101Z,71.90
2022-11-10T19:14:24.048Z,71.40
2022-11-10T19:17:11.442Z,71.30
2022-11-10T19:19:58.655Z,71.20
2022-11-10T19:22:46.910Z,71.10
2022-11-10T19:25:36.859Z,71.00
2022-11-10T19:28:28.150Z,70.80
2022-11-10T19:31:18.149Z,70.80
2022-11-10T19:34:04.923Z,70.60
2022-11-10T19:36:53.169Z,70.80
2022-11-10T19:39:42.150Z,70.60
2022-11-10T19:42:29.522Z,70.70
2022-11-10T19:45:16.788Z,70.70
2022-11-10T19:48:03.844Z,70.70
2022-11-10T19:50:55.284Z,70.70
2022-11-10T19:53:43.219Z,70.60
2022-11-10T19:56:35.591Z,70.70
2022-11-10T19:59:22.405Z,70.70
2022-11-10T20:02:13.470Z,70.80
2022-11-10T20:05:17.372Z,71.00
2022-11-10T20:08:12.449Z,71.00
2022-11-10T20:11:02.447Z,70.80
2022-11-10T20:13:55.234Z,70.80
2022-11-10T20:16:42.643Z,70.70
2022-11-10T20:19:29.492Z,70.80
2022-11-10T20:22:16.578Z,70.80
2022-11-10T20:25:03.662Z,70.70
2022-11-10T20:27:50.644Z,70.80
2022-11-10T20:30:43.596Z,71.00
2022-11-10T20:33:31.629Z,72.00
2022-11-10T20:36:21.244Z,71.50
2022-11-10T20:39:08.445Z,71.60
2022-11-10T20:41:55.297Z,71.80
2022-11-10T20:44:42.607Z,72.10
2022-11-10T20:47:31.012Z,72.10
2022-11-10T20:50:23.093Z,72.20
2022-11-10T20:53:11.383Z,72.30
2022-11-10T20:56:02.100Z,72.30
2022-11-10T20:58:51.885Z,72.50
2022-11-10T21:01:39.175Z,72.60
2022-11-10T21:04:27.636Z,72.90
2022-11-10T21:07:14.845Z,73.20
2022-11-10T21:10:01.689Z,73.40
2022-11-10T21:12:51.745Z,73.50
2022-11-10T21:15:40.430Z,73.60
2022-11-10T21:18:30.355Z,73.50
2022-11-10T21:21:23.978Z,73.50
2022-11-10T21:24:11.708Z,73.50
2022-11-10T21:26:59.428Z,73.60
2022-11-10T21:29:46.446Z,73.10
2022-11-10T21:32:35.160Z,73.10
2022-11-10T21:35:22.601Z,72.70
2022-11-10T21:38:13.278Z,72.30
2022-11-10T21:41:00.098Z,72.20
2022-11-10T21:43:46.966Z,72.10
2022-11-10T21:46:33.906Z,72.10
2022-11-10T21:49:21.120Z,71.70
2022-11-10T21:52:08.143Z,71.30
2022-11-10T21:54:56.527Z,70.80
2022-11-10T21:57:43.689Z,71.10
2022-11-10T22:00:30.703Z,71.20
2022-11-10T22:03:17.467Z,71.10
2022-11-10T22:06:05.849Z,71.20
2022-11-10T22:08:52.845Z,71.10
2022-11-10T22:11:58.196Z,71.40
2022-11-10T22:15:17.424Z,71.40
2022-11-10T22:18:22.099Z,72.70
2022-11-10T22:21:10.630Z,72.30
2022-11-10T22:24:14.723Z,72.10
2022-11-10T22:27:05.074Z,72.30
2022-11-10T22:29:52.487Z,72.00
2022-11-10T22:32:39.325Z,71.80
2022-11-10T22:35:44.708Z,71.70
2022-11-10T22:38:35.070Z,71.50
2022-11-10T22:41:39.218Z,71.20
2022-11-10T22:44:28.028Z,71.70
2022-11-10T22:47:15.304Z,71.80
2022-11-10T22:50:02.225Z,71.70
2022-11-10T22:52:49.470Z,71.70
2022-11-10T22:55:36.583Z,71.40
2022-11-10T22:58:26.666Z,71.60
2022-11-10T23:01:15.691Z,71.50
2022-11-10T23:04:03.219Z,71.30
2022-11-10T23:06:50.488Z,71.40
2022-11-10T23:09:37.724Z,71.40
2022-11-10T23:12:24.727Z,71.20
2022-11-10T23:15:12.180Z,71.20
2022-11-10T23:18:06.284Z,71.20
2022-11-10T23:20:59.240Z,71.20
2022-11-10T23:23:47.321Z,71.10
2022-11-10T23:26:34.932Z,71.00
2022-11-10T23:29:22.129Z,71.00
2022-11-10T23:32:09.244Z,71.10
2022-11-10T23:34:57.981Z,71.30
2022-11-10T23:37:45.449Z,71.10
2022-11-10T23:40:32.295Z,71.00
2022-11-10T23:43:19.262Z,71.00
2022-11-10T23:46:08.080Z,71.00
2022-11-10T23:48:55.218Z,70.90
2022-11-10T23:51:43.644Z,71.00
2022-11-10T23:54:31.208Z,71.00
2022-11-10T23:57:18.209Z,71.10
